createdAt,value
2022-09-24T00:00:56.611Z,7.97
2022-09-24T00:03:45.489Z,8.18
2022-09-24T00:06:35.397Z,8.02
2022-09-24T00:09:22.640Z,7.45
2022-09-24T00:12:13.001Z,7.80
2022-09-24T00:14:58.886Z,7.85
2022-09-24T00:17:44.898Z,7.90
2022-09-24T00:20:31.945Z,8.77
2022-09-24T00:23:18.047Z,8.00
2022-09-24T00:26:22.838Z,6.97
2022-09-24T00:29:11.831Z,8.38
2022-09-24T00:31:57.805Z,7.95
2022-09-24T00:34:43.580Z,7.72
2022-09-24T00:37:29.679Z,8.75
2022-09-24T00:40:15.883Z,9.17
2022-09-24T00:43:02.888Z,9.57
2022-09-24T00:45:51.510Z,8.15
2022-09-24T00:48:41.019Z,8.32
2022-09-24T00:51:29.190Z,8.40
2022-09-24T00:54:23.219Z,8.60
2022-09-24T00:57:09.747Z,8.38
2022-09-24T00:59:56.929Z,8.23
2022-09-24T01:02:46.706Z,8.15
2022-09-24T01:05:33.336Z,8.52
2022-09-24T01:08:21.053Z,9.40
2022-09-24T01:11:23.270Z,9.23
2022-09-24T01:14:27.662Z,9.75
2022-09-24T01:17:52.315Z,8.60
2022-09-24T01:20:41.546Z,9.20
2022-09-24T01:23:54.759Z,9.88
2022-09-24T01:27:05.504Z,8.40
2022-09-24T01:30:01.643Z,9.23
2022-09-24T01:32:54.031Z,7.65
2022-09-24T01:36:08.502Z,8.32
2022-09-24T01:38:56.165Z,8.43
2022-09-24T01:41:43.322Z,8.55
2022-09-24T01:44:30.403Z,8.98
2022-09-24T01:47:22.586Z,9.40
2022-09-24T01:50:12.370Z,8.98
2022-09-24T01:53:06.924Z,8.68
2022-09-24T01:56:00.685Z,9.13
2022-09-24T01:59:12.873Z,8.73
2022-09-24T02:02:05.998Z,8.55
2022-09-24T02:04:58.468Z,9.05
2022-09-24T02:08:10.954Z,8.07
2022-09-24T02:11:08.147Z,8.30
2022-09-24T02:14:00.845Z,7.47
2022-09-24T02:16:50.638Z,7.88
2022-09-24T02:19:39.150Z,8.15
2022-09-24T02:22:26.577Z,8.38
2022-09-24T02:25:18.343Z,8.07
2022-09-24T02:28:04.415Z,8.63
2022-09-24T02:30:55.057Z,6.28
2022-09-24T02:34:04.028Z,8.45
2022-09-24T02:36:57.921Z,9.10
2022-09-24T02:39:44.209Z,8.27
2022-09-24T02:42:31.398Z,8.55
2022-09-24T02:45:17.766Z,8.38
2022-09-24T02:48:03.706Z,8.50
2022-09-24T02:50:49.951Z,8.52
2022-09-24T02:53:36.219Z,8.00
2022-09-24T02:56:22.096Z,7.07
2022-09-24T02:59:08.705Z,5.82
2022-09-24T03:04:40.942Z,7.85
2022-09-24T03:07:26.830Z,7.33
2022-09-24T03:10:13.202Z,7.90
2022-09-24T03:12:59.235Z,7.70
2022-09-24T03:15:46.496Z,6.90
2022-09-24T03:18:33.835Z,7.57
2022-09-24T03:21:22.407Z,8.27
2022-09-24T03:24:08.625Z,7.68
2022-09-24T03:26:54.519Z,8.73
2022-09-24T03:29:59.052Z,9.05
2022-09-24T03:32:45.327Z,8.95
2022-09-24T03:35:31.225Z,7.93
2022-09-24T03:38:17.206Z,8.33
2022-09-24T03:41:04.669Z,8.43
2022-09-24T03:43:50.697Z,7.70
2022-09-24T03:46:36.932Z,8.07
2022-09-24T03:49:23.664Z,8.43
2022-09-24T03:52:09.882Z,8.30
2022-09-24T03:54:56.026Z,7.60
2022-09-24T03:57:42.046Z,8.00
2022-09-24T04:00:28.133Z,7.57
2022-09-24T04:03:14.466Z,7.50
2022-09-24T04:06:00.809Z,8.13
2022-09-24T04:08:46.831Z,7.10
2022-09-24T04:11:35.310Z,6.38
2022-09-24T04:14:21.305Z,7.75
2022-09-24T04:17:07.367Z,8.98
2022-09-24T04:19:54.409Z,7.35
2022-09-24T04:22:40.676Z,7.82
2022-09-24T04:25:30.679Z,7.47
2022-09-24T04:28:16.894Z,6.95
2022-09-24T04:31:02.985Z,7.10
2022-09-24T04:33:49.333Z,6.28
2022-09-24T04:36:35.280Z,6.60
2022-09-24T04:39:26.562Z,6.60
2022-09-24T04:42:17.717Z,6.82
2022-09-24T04:45:04.421Z,7.15
2022-09-24T04:50:44.752Z,6.70
2022-09-24T04:53:32.971Z,6.60
2022-09-24T04:56:19.186Z,6.68
2022-09-24T04:59:05.274Z,6.93
2022-09-24T05:01:51.540Z,6.38
2022-09-24T05:04:37.778Z,6.88
2022-09-24T05:07:23.587Z,6.93
2022-09-24T05:10:09.672Z,6.70
2022-09-24T05:12:56.165Z,6.93
2022-09-24T05:15:43.488Z,7.07
2022-09-24T05:18:29.715Z,7.10
2022-09-24T05:21:15.815Z,6.75
2022-09-24T05:24:02.232Z,7.00
2022-09-24T05:27:07.028Z,6.93
2022-09-24T05:29:52.978Z,6.22
2022-09-24T05:32:39.162Z,6.10
2022-09-24T05:35:25.502Z,6.20
2022-09-24T05:38:11.405Z,6.43
2022-09-24T05:40:57.816Z,6.85
2022-09-24T05:43:43.880Z,6.82
2022-09-24T05:46:29.823Z,7.33
2022-09-24T05:49:16.190Z,4.85
2022-09-24T05:52:02.497Z,6.30
2022-09-24T05:54:48.681Z,6.85
2022-09-24T05:57:34.953Z,6.50
2022-09-24T06:00:21.284Z,7.03
2022-09-24T06:03:12.657Z,6.13
2022-09-24T06:06:02.310Z,5.70
2022-09-24T06:08:48.782Z,6.32
2022-09-24T06:11:39.825Z,6.18
2022-09-24T06:14:28.192Z,6.40
2022-09-24T06:17:14.337Z,5.45
2022-09-24T06:20:00.263Z,5.50
2022-09-24T06:22:46.118Z,5.00
2022-09-24T06:25:32.197Z,5.57
2022-09-24T06:28:18.109Z,5.70
2022-09-24T06:31:04.912Z,5.77
2022-09-24T06:33:50.987Z,6.22
2022-09-24T06:36:37.092Z,6.05
2022-09-24T06:39:27.102Z,6.60
2022-09-24T06:42:13.013Z,5.72
2022-09-24T06:44:59.122Z,5.82
2022-09-24T06:47:45.862Z,5.47
2022-09-24T06:50:34.335Z,5.18
2022-09-24T06:53:20.937Z,5.72
2022-09-24T06:56:07.412Z,5.78
2022-09-24T06:58:54.243Z,6.07
2022-09-24T07:04:26.558Z,5.40
2022-09-24T07:07:31.846Z,4.83
2022-09-24T07:10:19.228Z,4.13
2022-09-24T07:13:05.594Z,5.10
2022-09-24T07:15:52.874Z,4.47
2022-09-24T07:18:38.967Z,4.55
2022-09-24T07:21:25.240Z,5.10
2022-09-24T07:24:11.218Z,5.10
2022-09-24T07:26:57.198Z,4.73
2022-09-24T07:29:43.239Z,5.00
2022-09-24T07:32:30.253Z,5.17
2022-09-24T07:35:16.567Z,5.40
2022-09-24T07:38:05.476Z,5.13
2022-09-24T07:40:51.563Z,4.50
2022-09-24T07:43:38.607Z,4.45
2022-09-24T07:46:24.968Z,4.63
2022-09-24T07:49:10.968Z,4.60
2022-09-24T07:51:56.945Z,4.60
2022-09-24T07:54:43.069Z,5.00
2022-09-24T07:57:28.864Z,5.20
2022-09-24T08:00:17.352Z,5.50
2022-09-24T08:03:04.987Z,5.45
2022-09-24T08:05:50.909Z,5.43
2022-09-24T08:08:38.968Z,5.60
2022-09-24T08:11:25.219Z,6.40
2022-09-24T08:14:11.463Z,5.88
2022-09-24T08:16:57.486Z,6.15
2022-09-24T08:19:46.877Z,5.82
2022-09-24T08:22:33.782Z,5.72
2022-09-24T08:28:07.449Z,5.55
2022-09-24T08:31:01.150Z,7.20
2022-09-24T08:33:50.870Z,6.30
2022-09-24T08:36:42.080Z,6.72
2022-09-24T08:39:28.976Z,6.13
2022-09-24T08:42:21.050Z,6.28
2022-09-24T08:45:28.286Z,6.53
2022-09-24T08:48:25.177Z,6.47
2022-09-24T08:51:18.035Z,6.80
2022-09-24T08:54:14.526Z,6.70
2022-09-24T08:57:05.705Z,7.20
2022-09-24T08:59:53.299Z,5.90
2022-09-24T09:02:47.234Z,5.97
2022-09-24T09:05:54.654Z,5.88
2022-09-24T09:09:06.837Z,5.93
2022-09-24T09:12:02.293Z,4.80
2022-09-24T09:15:03.321Z,4.95
2022-09-24T09:18:05.085Z,5.63
2022-09-24T09:20:51.709Z,5.50
2022-09-24T09:23:51.678Z,5.50
2022-09-24T09:26:38.024Z,5.47
2022-09-24T09:29:26.550Z,5.30
2022-09-24T09:32:31.386Z,5.47
2022-09-24T09:35:44.927Z,5.32
2022-09-24T09:39:00.889Z,5.10
2022-09-24T09:41:58.128Z,5.10
2022-09-24T09:44:46.225Z,5.18
2022-09-24T09:47:47.339Z,4.80
2022-09-24T09:50:52.079Z,4.63
2022-09-24T09:53:40.034Z,4.60
2022-09-24T09:56:34.293Z,4.70
2022-09-24T09:59:27.223Z,4.30
2022-09-24T10:02:27.277Z,4.07
2022-09-24T10:05:26.347Z,4.85
2022-09-24T10:08:24.121Z,4.95
2022-09-24T10:11:16.020Z,4.68
2022-09-24T10:14:09.032Z,4.90
2022-09-24T10:16:56.120Z,5.15
2022-09-24T10:19:47.752Z,5.55
2022-09-24T10:22:36.007Z,5.20
2022-09-24T10:25:28.501Z,5.18
2022-09-24T10:28:38.115Z,5.93
2022-09-24T10:31:27.227Z,5.80
2022-09-24T10:34:28.346Z,5.53
2022-09-24T10:37:18.958Z,5.63
2022-09-24T10:40:10.940Z,6.68
2022-09-24T10:43:05.640Z,5.82
2022-09-24T10:46:13.140Z,6.20
2022-09-24T10:49:15.511Z,6.80
2022-09-24T10:52:04.845Z,6.65
2022-09-24T10:55:06.335Z,6.10
2022-09-24T10:58:13.179Z,7.22
2022-09-24T11:01:23.239Z,10.93
2022-09-24T11:04:30.534Z,8.65
2022-09-24T11:07:39.485Z,8.30
2022-09-24T11:10:51.854Z,8.77
2022-09-24T11:13:54.500Z,8.07
2022-09-24T11:17:03.393Z,8.45
2022-09-24T11:20:36.939Z,8.68
2022-09-24T11:23:45.186Z,8.80
2022-09-24T11:26:57.859Z,8.20
2022-09-24T11:29:52.910Z,8.13
2022-09-24T11:32:54.207Z,8.80
2022-09-24T11:35:56.587Z,7.97
2022-09-24T11:38:53.076Z,8.00
2022-09-24T11:41:41.727Z,8.55
2022-09-24T11:45:02.328Z,8.52
2022-09-24T11:48:36.103Z,8.25
2022-09-24T11:51:43.316Z,8.45
2022-09-24T11:54:38.348Z,8.63
2022-09-24T11:57:33.676Z,9.00
2022-09-24T12:00:21.346Z,8.30
2022-09-24T12:03:34.355Z,9.20
2022-09-24T12:06:25.339Z,8.55
2022-09-24T12:09:33.386Z,9.70
2022-09-24T12:12:26.926Z,8.93
2022-09-24T12:15:20.972Z,8.50
2022-09-24T12:18:14.807Z,8.98
2022-09-24T12:21:09.812Z,9.52
2022-09-24T12:24:19.268Z,9.27
2022-09-24T12:27:15.494Z,9.25
2022-09-24T12:30:29.315Z,9.30
2022-09-24T12:33:21.099Z,8.75
2022-09-24T12:36:28.538Z,8.23
2022-09-24T12:39:18.985Z,9.60
2022-09-24T12:42:10.092Z,8.75
2022-09-24T12:44:59.479Z,7.47
2022-09-24T12:47:58.420Z,8.65
2022-09-24T12:50:58.807Z,8.57
2022-09-24T12:53:56.596Z,7.55
2022-09-24T12:56:42.656Z,7.25
2022-09-24T12:59:29.007Z,7.72
2022-09-24T13:02:18.573Z,8.10
2022-09-24T13:05:23.144Z,8.57
2022-09-24T13:08:18.017Z,7.45
2022-09-24T13:11:22.597Z,7.60
2022-09-24T13:14:19.687Z,8.18
2022-09-24T13:17:07.378Z,7.65
2022-09-24T13:19:59.272Z,6.85
2022-09-24T13:23:19.740Z,7.22
2022-09-24T13:26:09.193Z,7.30
2022-09-24T13:29:03.950Z,7.07
2022-09-24T13:32:02.855Z,7.00
2022-09-24T13:34:51.658Z,7.13
2022-09-24T13:37:43.814Z,7.20
2022-09-24T13:40:37.235Z,6.78
2022-09-24T13:44:05.489Z,6.60
2022-09-24T13:47:15.515Z,7.05
2022-09-24T13:50:12.856Z,7.53
2022-09-24T13:53:04.702Z,7.47
2022-09-24T13:55:54.840Z,6.88
2022-09-24T13:58:43.018Z,6.95
2022-09-24T14:01:30.853Z,6.80
2022-09-24T14:04:22.553Z,6.80
2022-09-24T14:07:09.495Z,6.85
2022-09-24T14:10:05.327Z,6.00
2022-09-24T14:13:13.345Z,6.03
2022-09-24T14:19:04.543Z,6.72
2022-09-24T14:21:57.944Z,6.95
2022-09-24T14:24:56.275Z,6.63
2022-09-24T14:27:46.394Z,7.35
2022-09-24T14:30:35.818Z,7.60
2022-09-24T14:33:32.048Z,8.07
2022-09-24T14:36:18.933Z,7.07
2022-09-24T14:39:06.041Z,7.10
2022-09-24T14:41:53.352Z,7.25
2022-09-24T14:44:44.418Z,7.85
2022-09-24T14:47:33.335Z,7.10
2022-09-24T14:50:46.860Z,7.75
2022-09-24T14:53:35.434Z,7.30
2022-09-24T14:56:29.438Z,8.02
2022-09-24T14:59:26.595Z,8.32
2022-09-24T15:02:37.221Z,7.88
2022-09-24T15:05:29.151Z,7.32
2022-09-24T15:08:23.201Z,7.72
2022-09-24T15:11:18.024Z,7.97
2022-09-24T15:14:15.787Z,7.28
2022-09-24T15:17:10.688Z,7.47
2022-09-24T15:19:57.964Z,6.65
2022-09-24T15:22:46.214Z,7.55
2022-09-24T15:25:32.576Z,7.72
2022-09-24T15:28:18.983Z,7.47
2022-09-24T15:31:05.235Z,7.38
2022-09-24T15:36:38.647Z,8.15
2022-09-24T15:39:26.252Z,8.60
2022-09-24T15:42:12.588Z,8.15
2022-09-24T15:44:58.973Z,8.52
2022-09-24T15:47:45.639Z,8.27
2022-09-24T15:50:31.917Z,8.23
2022-09-24T15:53:24.064Z,8.93
2022-09-24T15:56:10.266Z,9.52
2022-09-24T15:58:56.464Z,9.80
2022-09-24T16:01:43.319Z,12.50
2022-09-24T16:04:29.531Z,11.05
2022-09-24T16:07:15.557Z,11.15
2022-09-24T16:10:01.881Z,10.32
2022-09-24T16:12:47.919Z,11.43
2022-09-24T16:15:34.586Z,10.00
2022-09-24T16:18:25.873Z,10.77
2022-09-24T16:21:12.515Z,11.05
2022-09-24T16:24:00.265Z,11.15
2022-09-24T16:26:46.276Z,11.05
2022-09-24T16:29:32.991Z,11.10
2022-09-24T16:32:19.376Z,11.10
2022-09-24T16:35:06.249Z,13.18
2022-09-24T16:37:52.273Z,14.38
2022-09-24T16:40:39.183Z,12.43
2022-09-24T16:43:25.116Z,13.90
2022-09-24T16:46:14.186Z,12.40
2022-09-24T16:49:04.298Z,12.90
2022-09-24T16:51:50.333Z,12.73
2022-09-24T16:54:36.763Z,13.43
2022-09-24T16:57:22.878Z,12.52
2022-09-24T17:00:10.648Z,13.77
2022-09-24T17:02:57.042Z,12.77
2022-09-24T17:05:43.557Z,16.42
2022-09-24T17:08:51.264Z,14.20
2022-09-24T17:14:24.174Z,15.48
2022-09-24T17:17:10.504Z,15.00
2022-09-24T17:19:56.390Z,15.13
2022-09-24T17:22:42.771Z,16.05
2022-09-24T17:25:28.863Z,16.30
2022-09-24T17:28:15.157Z,15.63
2022-09-24T17:31:01.680Z,15.98
2022-09-24T17:33:58.232Z,17.75
2022-09-24T17:36:44.314Z,17.85
2022-09-24T17:39:30.894Z,16.30
2022-09-24T17:42:17.208Z,16.52
2022-09-24T17:45:03.686Z,17.95
2022-09-24T17:48:00.409Z,15.95
2022-09-24T17:50:53.664Z,17.20
2022-09-24T17:53:40.603Z,17.90
2022-09-24T17:56:28.765Z,19.23
2022-09-24T17:59:15.264Z,18.38
2022-09-24T18:02:01.616Z,19.70
2022-09-24T18:04:47.605Z,17.88
2022-09-24T18:07:33.551Z,18.67
2022-09-24T18:10:19.639Z,19.17
2022-09-24T18:13:06.767Z,18.70
2022-09-24T18:15:53.087Z,18.08
2022-09-24T18:18:39.777Z,19.08
2022-09-24T18:21:26.259Z,19.90
2022-09-24T18:24:13.319Z,19.25
2022-09-24T18:26:59.711Z,19.00
2022-09-24T18:29:46.495Z,18.20
2022-09-24T18:35:18.948Z,17.25
2022-09-24T18:38:04.955Z,19.73
2022-09-24T18:40:51.005Z,19.23
2022-09-24T18:43:37.696Z,17.92
2022-09-24T18:46:24.346Z,17.52
2022-09-24T18:49:11.921Z,17.75
2022-09-24T18:51:58.681Z,19.05
2022-09-24T18:54:44.887Z,17.10
2022-09-24T18:57:31.608Z,17.52
2022-09-24T19:00:36.579Z,17.35
2022-09-24T19:03:23.603Z,15.60
2022-09-24T19:06:12.746Z,16.95
2022-09-24T19:08:59.562Z,18.10
2022-09-24T19:11:47.064Z,16.08
2022-09-24T19:14:33.251Z,16.77
2022-09-24T19:17:19.391Z,17.52
2022-09-24T19:20:05.998Z,18.52
2022-09-24T19:22:59.926Z,18.10
2022-09-24T19:25:45.905Z,18.23
2022-09-24T19:28:32.046Z,16.33
2022-09-24T19:31:30.386Z,16.35
2022-09-24T19:34:16.556Z,18.70
2022-09-24T19:37:03.194Z,19.25
2022-09-24T19:39:49.085Z,17.75
2022-09-24T19:42:35.062Z,19.70
2022-09-24T19:45:21.258Z,21.23
2022-09-24T19:48:07.116Z,19.08
2022-09-24T19:50:54.721Z,19.42
2022-09-24T19:53:42.164Z,18.20
2022-09-24T19:56:29.194Z,21.05
2022-09-24T20:02:02.933Z,20.77
2022-09-24T20:04:49.317Z,20.17
2022-09-24T20:07:35.491Z,21.17
2022-09-24T20:10:21.963Z,21.55
2022-09-24T20:13:11.775Z,22.02
2022-09-24T20:16:00.054Z,21.13
2022-09-24T20:18:47.993Z,21.83
2022-09-24T20:21:35.378Z,23.60
2022-09-24T20:24:22.760Z,24.05
2022-09-24T20:27:32.886Z,21.83
2022-09-24T20:30:21.371Z,23.10
2022-09-24T20:33:09.406Z,23.38
2022-09-24T20:36:02.278Z,22.40
2022-09-24T20:38:48.640Z,23.52
2022-09-24T20:41:35.026Z,24.38
2022-09-24T20:44:22.125Z,24.70
2022-09-24T20:47:09.518Z,23.55
2022-09-24T20:49:55.851Z,23.52
2022-09-24T20:52:42.013Z,23.30
2022-09-24T20:55:28.103Z,22.08
2022-09-24T20:58:15.659Z,23.70
2022-09-24T21:01:02.525Z,22.08
2022-09-24T21:03:50.098Z,22.65
2022-09-24T21:06:37.295Z,23.08
2022-09-24T21:09:23.413Z,23.77
2022-09-24T21:12:09.391Z,22.70
2022-09-24T21:14:55.991Z,21.93
2022-09-24T21:17:54.693Z,23.35
2022-09-24T21:20:49.771Z,23.83
2022-09-24T21:23:37.933Z,20.40
2022-09-24T21:26:29.884Z,21.70
2022-09-24T21:29:18.315Z,22.67
2022-09-24T21:32:04.631Z,22.58
2022-09-24T21:34:50.642Z,21.45
2022-09-24T21:37:38.523Z,24.35
2022-09-24T21:40:24.823Z,24.17
2022-09-24T21:43:10.636Z,23.73
2022-09-24T21:46:06.772Z,21.98
2022-09-24T21:48:54.982Z,23.13
2022-09-24T21:51:41.957Z,21.27
2022-09-24T21:54:30.322Z,23.77
2022-09-24T21:57:16.194Z,22.73
2022-09-24T22:00:04.376Z,24.73
2022-09-24T22:02:50.906Z,23.67
2022-09-24T22:05:43.839Z,21.60
2022-09-24T22:08:32.100Z,21.27
2022-09-24T22:11:19.093Z,20.30
2022-09-24T22:14:05.412Z,21.10
2022-09-24T22:16:51.860Z,22.17
2022-09-24T22:22:24.088Z,21.55
2022-09-24T22:25:10.307Z,24.70
2022-09-24T22:27:56.506Z,22.67
2022-09-24T22:30:44.661Z,23.80
2022-09-24T22:33:50.091Z,22.70
2022-09-24T22:36:36.195Z,20.98
2022-09-24T22:39:22.620Z,23.13
2022-09-24T22:42:08.571Z,22.83
2022-09-24T22:44:55.809Z,22.27
2022-09-24T22:47:42.496Z,20.33
2022-09-24T22:50:29.046Z,22.63
2022-09-24T22:53:15.346Z,21.58
2022-09-24T22:56:04.815Z,21.17
2022-09-24T22:58:59.280Z,21.77
2022-09-24T23:01:45.539Z,20.85
2022-09-24T23:07:19.433Z,21.15
2022-09-24T23:10:06.582Z,21.08
2022-09-24T23:12:52.611Z,20.30
2022-09-24T23:15:38.549Z,21.47
2022-09-24T23:18:24.482Z,20.43
2022-09-24T23:21:13.030Z,22.02
2022-09-24T23:24:05.519Z,22.98
2022-09-24T23:26:53.130Z,16.48
2022-09-24T23:29:39.450Z,29.48
2022-09-24T23:32:25.836Z,19.40
2022-09-24T23:35:12.202Z,18.48
2022-09-24T23:37:58.298Z,19.95
2022-09-24T23:40:44.569Z,19.88
2022-09-24T23:43:30.996Z,16.50
2022-09-24T23:46:17.756Z,16.55
2022-09-24T23:49:04.223Z,19.15
2022-09-24T23:51:50.635Z,17.65
2022-09-24T23:54:40.320Z,14.90
2022-09-24T23:57:26.287Z,14.27
